Time;durP1;ratioP1;P1;durP2;ratioP2;P2;SDS_P1;SDS_P2;PMS_P1;PMS_P2;Temp;Humidity;BMP_temperature;BMP_pressure;BME280_temperature;BME280_humidity;BME280_pressure;Samples;Min_cycle;Max_cycle;Signal;HPM_P1;HPM_P2
2022/10/29 00:00:03;;;;;;;27.60;12.18;;;;;;;12.40;100.00;99175.72;5089066;28;20024;-83
2022/10/29 00:02:29;;;;;;;26.40;12.30;;;;;;;12.37;100.00;99174.28;5090744;28;20020;-84
2022/10/29 00:04:54;;;;;;;30.70;12.27;;;;;;;12.37;100.00;99163.75;5090801;28;20036;-83
2022/10/29 00:07:20;;;;;;;33.03;12.98;;;;;;;12.36;100.00;99162.16;5091557;28;20385;-83
2022/10/29 00:09:45;;;;;;;24.48;12.32;;;;;;;12.39;100.00;99153.88;5090825;28;20025;-83
2022/10/29 00:12:11;;;;;;;27.52;12.68;;;;;;;12.46;100.00;99158.31;5089851;28;20381;-83
2022/10/29 00:14:36;;;;;;;44.58;14.13;;;;;;;12.40;100.00;99163.38;5090225;28;20040;-83
2022/10/29 00:17:02;;;;;;;32.10;14.38;;;;;;;12.45;100.00;99154.06;5087906;28;20115;-82
2022/10/29 00:19:27;;;;;;;46.42;15.45;;;;;;;12.42;100.00;99145.56;5092882;28;20052;-83
2022/10/29 00:21:53;;;;;;;36.13;13.88;;;;;;;12.45;100.00;99148.78;5095111;28;20035;-83
2022/10/29 00:24:19;;;;;;;31.40;13.25;;;;;;;12.46;100.00;99140.66;5076885;28;20440;-83
2022/10/29 00:26:44;;;;;;;28.02;13.75;;;;;;;12.45;100.00;99138.25;5093325;28;20543;-83
2022/10/29 00:29:10;;;;;;;34.05;16.65;;;;;;;12.42;100.00;99150.00;5093957;28;20062;-84
2022/10/29 00:31:35;;;;;;;36.30;15.07;;;;;;;12.48;100.00;99148.38;5095737;28;20024;-84
2022/10/29 00:34:01;;;;;;;32.92;16.63;;;;;;;12.55;100.00;99154.44;5095080;28;20032;-83
2022/10/29 00:36:28;;;;;;;44.33;16.85;;;;;;;12.59;100.00;99160.94;5093096;28;20032;-83
2022/10/29 00:38:55;;;;;;;39.30;16.33;;;;;;;12.54;100.00;99163.34;5094114;28;20477;-84
2022/10/29 00:41:28;;;;;;;40.10;16.83;;;;;;;12.59;100.00;99171.47;5093044;28;20024;-85
2022/10/29 00:44:19;;;;;;;37.47;17.20;;;;;;;12.65;100.00;99164.56;5093883;28;20438;-82
2022/10/29 00:46:49;;;;;;;35.28;16.80;;;;;;;12.59;100.00;99160.94;5093646;28;20043;-83
2022/10/29 00:49:15;;;;;;;36.35;16.25;;;;;;;12.58;100.00;99164.59;5094892;28;20384;-83
2022/10/29 00:51:43;;;;;;;44.25;16.27;;;;;;;12.50;100.00;99159.50;5094444;28;20058;-82
2022/10/29 00:54:11;;;;;;;40.47;16.23;;;;;;;12.55;100.00;99149.16;5094640;28;20101;-82
2022/10/29 00:56:49;;;;;;;40.10;16.70;;;;;;;12.57;100.00;99155.88;5075833;28;20062;-83
2022/10/29 00:59:16;;;;;;;43.03;17.45;;;;;;;12.55;100.00;99143.91;5092705;28;20028;-82
2022/10/29 01:01:43;;;;;;;38.08;16.63;;;;;;;12.61;100.00;99139.66;5093096;28;20047;-83
2022/10/29 01:04:09;;;;;;;38.88;16.33;;;;;;;12.67;100.00;99147.53;5096765;28;20456;-83
2022/10/29 01:06:36;;;;;;;38.10;15.85;;;;;;;12.64;100.00;99134.78;5094370;28;20020;-82
2022/10/29 01:09:02;;;;;;;41.90;16.48;;;;;;;12.63;100.00;99125.28;5092558;28;20028;-82
2022/10/29 01:11:52;;;;;;;43.53;17.05;;;;;;;12.62;100.00;99118.38;5094332;28;20035;-83
2022/10/29 01:14:53;;;;;;;36.28;17.42;;;;;;;12.58;100.00;99122.47;5092525;28;20075;-83
2022/10/29 01:17:25;;;;;;;36.47;17.52;;;;;;;12.54;100.00;99124.69;5014562;28;20049;-83
2022/10/29 01:20:35;;;;;;;36.17;17.02;;;;;;;12.53;100.00;99116.97;5082760;28;20032;-84
2022/10/29 01:23:19;;;;;;;44.50;16.95;;;;;;;12.50;100.00;99120.84;5082831;28;20047;-84
2022/10/29 01:26:06;;;;;;;29.08;16.52;;;;;;;12.49;100.00;99116.59;5094713;28;20505;-83
2022/10/29 01:29:13;;;;;;;33.30;16.45;;;;;;;12.46;100.00;99119.59;5092416;28;20067;-83
2022/10/29 01:32:17;;;;;;;39.80;17.20;;;;;;;12.43;100.00;99112.94;5090361;28;20035;-83
2022/10/29 01:34:52;;;;;;;;;;;;;;;12.42;100.00;99108.69;5092914;28;20043;-83
2022/10/29 01:37:27;;;;;;;27.60;14.13;;;;;;;12.31;100.00;99098.78;5092400;28;19916;-83
2022/10/29 01:40:01;;;;;;;42.20;15.93;;;;;;;12.28;100.00;99104.47;5092360;28;20036;-83
2022/10/29 01:42:39;;;;;;;32.17;14.23;;;;;;;12.29;100.00;99108.72;5092933;28;20039;-83
2022/10/29 01:45:30;;;;;;;41.20;13.43;;;;;;;12.27;100.00;99116.00;5093598;28;20028;-83
2022/10/29 01:48:03;;;;;;;30.60;14.13;;;;;;;12.31;100.00;99133.00;5092962;28;20107;-82
2022/10/29 01:50:29;;;;;;;28.80;14.82;;;;;;;12.35;100.00;99128.16;5092587;28;20036;-83
2022/10/29 01:52:55;;;;;;;36.72;14.45;;;;;;;12.35;100.00;99118.41;5092845;28;20054;-82
2022/10/29 01:55:28;;;;;;;36.47;15.55;;;;;;;12.34;100.00;99116.78;5092508;28;20366;-83
2022/10/29 01:57:54;;;;;;;46.75;15.57;;;;;;;12.33;100.00;99109.91;5074400;28;20085;-82
2022/10/29 02:00:20;;;;;;;40.00;14.32;;;;;;;12.34;100.00;99100.22;5092752;28;20032;-83
2022/10/29 02:03:15;;;;;;;35.58;15.30;;;;;;;12.42;100.00;99113.97;5093139;28;20032;-83
2022/10/29 02:05:50;;;;;;;44.10;14.88;;;;;;;12.45;100.00;99088.25;5091090;28;20035;-83
2022/10/29 02:08:40;;;;;;;27.77;14.38;;;;;;;12.52;100.00;99086.41;5091896;28;20035;-82
2022/10/29 02:11:29;;;;;;;34.70;13.15;;;;;;;12.50;100.00;99093.69;5092308;28;20032;-83
2022/10/29 02:14:06;;;;;;;43.63;14.45;;;;;;;12.53;100.00;99115.16;5093140;28;21508;-83
2022/10/29 02:16:32;;;;;;;37.13;14.77;;;;;;;12.53;100.00;99109.06;5091020;28;20028;-83
2022/10/29 02:18:59;;;;;;;50.70;15.63;;;;;;;12.47;100.00;99094.91;5092836;28;20044;-83
2022/10/29 02:21:25;;;;;;;38.08;16.67;;;;;;;12.42;100.00;99108.69;5091489;28;20059;-83
2022/10/29 02:23:50;;;;;;;41.40;18.13;;;;;;;12.41;100.00;99107.09;5092433;28;20048;-83
2022/10/29 02:26:16;;;;;;;55.38;18.55;;;;;;;12.55;100.00;99112.31;5093085;28;20082;-83
2022/10/29 02:28:42;;;;;;;50.40;18.98;;;;;;;12.56;100.00;99112.13;5092280;28;20039;-84
2022/10/29 02:31:08;;;;;;;46.95;18.67;;;;;;;12.69;100.00;99098.09;5092224;28;20416;-83
2022/10/29 02:33:33;;;;;;;46.75;18.10;;;;;;;12.76;100.00;99092.00;5091796;28;20035;-84
2022/10/29 02:35:59;;;;;;;43.85;18.17;;;;;;;12.76;100.00;99087.56;5091974;28;20028;-83
2022/10/29 02:38:24;;;;;;;49.92;18.30;;;;;;;12.85;100.00;99085.50;5093319;28;20032;-83
2022/10/29 02:40:50;;;;;;;49.08;17.40;;;;;;;12.83;100.00;99087.53;5075096;28;20443;-83
2022/10/29 02:43:16;;;;;;;41.17;15.82;;;;;;;12.87;100.00;99088.72;5090770;28;20024;-83
2022/10/29 02:45:44;;;;;;;50.10;16.60;;;;;;;12.92;100.00;99091.53;5092711;28;20032;-83
2022/10/29 02:48:10;;;;;;;39.97;15.90;;;;;;;12.93;100.00;99080.00;5092602;28;20024;-83
2022/10/29 02:50:36;;;;;;;58.10;18.92;;;;;;;12.81;100.00;99071.13;5091026;28;20358;-83
2022/10/29 02:53:01;;;;;;;41.45;17.65;;;;;;;12.91;100.00;99068.84;5092558;28;20056;-84
2022/10/29 02:55:28;;;;;;;48.90;17.08;;;;;;;12.86;100.00;99066.03;5091894;28;20067;-83
2022/10/29 02:57:53;;;;;;;36.60;15.60;;;;;;;12.89;100.00;99049.81;5092461;28;20485;-84
2022/10/29 03:00:19;;;;;;;38.63;15.05;;;;;;;12.91;100.00;99042.50;5092511;28;20032;-84
2022/10/29 03:02:44;;;;;;;34.63;15.07;;;;;;;12.91;100.00;99039.88;5092450;28;20031;-83
2022/10/29 03:05:10;;;;;;;38.45;14.93;;;;;;;12.90;100.00;99040.91;5091532;28;20095;-84
2022/10/29 03:07:37;;;;;;;41.25;15.52;;;;;;;12.81;100.00;99031.63;5093103;28;20024;-84
2022/10/29 03:10:04;;;;;;;41.78;14.13;;;;;;;12.83;100.00;99029.59;5089852;28;20367;-84
2022/10/29 03:12:30;;;;;;;34.38;13.60;;;;;;;12.79;100.00;99020.50;5091387;28;20055;-83
2022/10/29 03:14:56;;;;;;;39.65;14.70;;;;;;;12.79;100.00;99016.03;5093218;28;20030;-84
2022/10/29 03:17:22;;;;;;;30.45;13.30;;;;;;;12.81;100.00;99021.88;5092956;28;20477;-84
2022/10/29 03:19:47;;;;;;;42.17;14.50;;;;;;;12.76;100.00;99013.81;5093117;28;20028;-84
2022/10/29 03:22:13;;;;;;;25.48;13.13;;;;;;;12.80;100.00;99022.91;5093013;28;20032;-84
2022/10/29 03:24:38;;;;;;;31.83;13.00;;;;;;;12.81;100.00;99016.63;5092543;28;20462;-84
2022/10/29 03:27:04;;;;;;;28.98;12.88;;;;;;;12.86;100.00;99008.88;5091096;28;20081;-84
2022/10/29 03:29:29;;;;;;;32.10;13.75;;;;;;;12.84;100.00;99002.22;5092400;28;20032;-85
2022/10/29 03:31:55;;;;;;;31.15;13.85;;;;;;;12.84;100.00;98995.13;5091162;28;20032;-83
2022/10/29 03:34:20;;;;;;;36.95;15.27;;;;;;;12.87;100.00;98991.25;5092216;28;20028;-83
2022/10/29 03:36:46;;;;;;;35.85;14.45;;;;;;;12.84;100.00;98984.59;5091666;28;20058;-84
2022/10/29 03:39:11;;;;;;;31.27;14.48;;;;;;;12.86;100.00;98981.75;5091900;28;20437;-84
2022/10/29 03:41:37;;;;;;;31.63;13.25;;;;;;;12.93;100.00;98974.59;5092100;28;20397;-84
2022/10/29 03:44:03;;;;;;;30.10;13.18;;;;;;;12.92;100.00;98967.72;5091412;28;20115;-84
2022/10/29 03:46:29;;;;;;;30.23;12.82;;;;;;;12.97;100.00;98970.56;5090927;28;20051;-83
2022/10/29 03:48:54;;;;;;;34.88;12.77;;;;;;;12.92;100.00;98967.72;5091894;28;20088;-84
2022/10/29 03:51:20;;;;;;;29.88;11.95;;;;;;;12.83;100.00;98961.09;5091076;28;20040;-83
2022/10/29 03:53:46;;;;;;;29.73;12.93;;;;;;;12.82;100.00;98957.66;5091133;28;20042;-84
2022/10/29 03:56:12;;;;;;;25.42;11.05;;;;;;;12.85;100.00;98967.75;5092935;28;20085;-84
2022/10/29 03:58:38;;;;;;;25.45;12.90;;;;;;;12.82;100.00;98962.13;5091435;28;20031;-83
2022/10/29 04:01:05;;;;;;;30.33;12.57;;;;;;;12.80;100.00;98953.63;5091205;28;20119;-84
2022/10/29 04:03:32;;;;;;;26.45;11.55;;;;;;;12.77;100.00;98962.75;5089676;28;20099;-83
2022/10/29 04:06:00;;;;;;;25.15;10.95;;;;;;;12.76;100.00;98950.59;5090456;28;20496;-83
2022/10/29 04:08:26;;;;;;;20.27;10.20;;;;;;;12.70;100.00;98946.97;5107332;28;20040;-83
2022/10/29 04:10:51;;;;;;;30.38;11.95;;;;;;;12.64;100.00;98952.28;5090032;28;20036;-83
2022/10/29 04:13:18;;;;;;;25.85;11.55;;;;;;;12.59;100.00;98950.28;5091291;28;20063;-83
2022/10/29 04:15:44;;;;;;;21.23;9.43;;;;;;;12.47;100.00;98968.53;5091157;28;20485;-83
2022/10/29 04:18:10;;;;;;;25.70;10.68;;;;;;;12.35;100.00;98970.22;5091152;28;20040;-83
2022/10/29 04:20:37;;;;;;;24.52;11.43;;;;;;;12.34;100.00;98956.25;5088497;28;20048;-83
2022/10/29 04:23:03;;;;;;;34.53;12.00;;;;;;;12.34;100.00;98966.75;5090911;28;20040;-83
2022/10/29 04:25:29;;;;;;;35.67;12.77;;;;;;;12.31;100.00;98972.44;5089784;28;20046;-83
2022/10/29 04:27:55;;;;;;;26.95;12.80;;;;;;;12.36;100.00;98977.88;5089596;28;20028;-83
2022/10/29 04:30:22;;;;;;;29.38;14.27;;;;;;;12.41;100.00;98975.47;5089333;28;20501;-83
2022/10/29 04:32:48;;;;;;;27.67;13.43;;;;;;;12.46;100.00;98985.34;5089567;28;20032;-83
2022/10/29 04:35:14;;;;;;;33.30;14.65;;;;;;;12.45;100.00;98980.31;5090995;28;20038;-83
2022/10/29 04:37:39;;;;;;;36.47;15.45;;;;;;;12.47;100.00;98978.28;5090264;28;20028;-83
2022/10/29 04:40:06;;;;;;;33.13;14.40;;;;;;;12.52;100.00;98976.63;5091135;28;20111;-83
2022/10/29 04:42:38;;;;;;;29.63;13.68;;;;;;;12.61;100.00;98956.16;5089311;28;20491;-83
2022/10/29 04:45:05;;;;;;;32.80;13.65;;;;;;;12.54;100.00;98947.44;5090529;28;20024;-83
2022/10/29 04:47:31;;;;;;;25.67;13.18;;;;;;;12.57;100.00;98947.03;5090541;28;20035;-84
2022/10/29 04:49:57;;;;;;;32.42;13.38;;;;;;;12.56;100.00;98935.72;5089349;28;20411;-83
2022/10/29 04:52:24;;;;;;;29.33;12.07;;;;;;;12.52;100.00;98929.25;5088358;28;20131;-83
2022/10/29 04:54:50;;;;;;;29.23;13.02;;;;;;;12.63;100.00;98934.84;5091537;28;20047;-84
2022/10/29 04:57:15;;;;;;;30.60;12.98;;;;;;;12.61;100.00;98921.91;5089239;28;20469;-83
2022/10/29 04:59:41;;;;;;;21.27;11.27;;;;;;;12.69;100.00;98932.19;5091049;28;20028;-84
2022/10/29 05:02:09;;;;;;;25.20;12.52;;;;;;;12.71;100.00;98927.53;5089164;28;20474;-84
2022/10/29 05:04:39;;;;;;;33.45;13.13;;;;;;;12.65;100.00;98923.09;5088979;28;20028;-84
2022/10/29 05:07:05;;;;;;;43.58;13.60;;;;;;;12.64;100.00;98921.50;5091964;28;20059;-83
2022/10/29 05:09:33;;;;;;;31.63;12.77;;;;;;;12.66;100.00;98940.53;5094175;28;20077;-82
2022/10/29 05:12:03;;;;;;;32.00;14.40;;;;;;;12.64;100.00;98926.75;5094079;28;20051;-83
2022/10/29 05:14:33;;;;;;;38.70;15.07;;;;;;;12.56;100.00;98917.28;5094033;28;20035;-83
2022/10/29 05:17:01;;;;;;;38.90;16.23;;;;;;;12.57;100.00;98918.88;5074765;28;20028;-83
2022/10/29 05:19:31;;;;;;;38.20;16.17;;;;;;;12.59;100.00;98920.50;5094915;28;20028;-84
2022/10/29 05:21:59;;;;;;;46.10;18.58;;;;;;;12.55;100.00;98922.75;5093539;28;20027;-83
2022/10/29 05:24:29;;;;;;;32.20;15.32;;;;;;;12.75;100.00;98908.66;5093522;28;20028;-83
2022/10/29 05:26:55;;;;;;;36.13;16.63;;;;;;;12.65;100.00;98912.56;5094104;28;20464;-83
2022/10/29 05:29:20;;;;;;;42.40;17.88;;;;;;;12.65;100.00;98901.22;5093749;28;20450;-84
2022/10/29 05:31:46;;;;;;;45.20;17.33;;;;;;;12.71;100.00;98919.63;5092379;28;20086;-83
2022/10/29 05:34:11;;;;;;;41.25;17.80;;;;;;;12.70;100.00;98918.00;5093762;28;20051;-83
2022/10/29 05:36:37;;;;;;;33.63;15.93;;;;;;;12.77;100.00;98919.78;5093935;28;20036;-84
2022/10/29 05:39:03;;;;;;;41.90;16.88;;;;;;;12.80;100.00;98908.84;5092496;28;20028;-83
2022/10/29 05:41:29;;;;;;;35.95;16.38;;;;;;;12.82;100.00;98891.00;5094056;28;20028;-84
2022/10/29 05:43:54;;;;;;;36.90;17.08;;;;;;;12.94;100.00;98886.66;5093604;28;20598;-84
2022/10/29 05:46:20;;;;;;;35.65;16.45;;;;;;;13.04;100.00;98882.75;5094113;28;20031;-83
2022/10/29 05:48:45;;;;;;;39.83;16.90;;;;;;;13.10;100.00;98887.16;5093328;28;20119;-83
2022/10/29 05:51:11;;;;;;;41.70;17.48;;;;;;;13.11;100.00;98897.47;5094638;28;20473;-83
2022/10/29 05:53:37;;;;;;;37.95;16.77;;;;;;;13.11;100.00;98897.47;5093380;28;20050;-83
2022/10/29 05:56:02;;;;;;;44.17;17.77;;;;;;;13.16;100.00;98896.81;5092255;28;20032;-83
2022/10/29 05:58:29;;;;;;;41.00;16.55;;;;;;;13.16;100.00;98906.56;5093712;28;20032;-84
2022/10/29 06:00:54;;;;;;;39.08;16.45;;;;;;;13.18;100.00;98904.53;5095831;28;20038;-84
2022/10/29 06:03:21;;;;;;;39.22;17.88;;;;;;;13.23;100.00;98908.13;5092949;28;20098;-84
2022/10/29 06:05:48;;;;;;;105.97;28.48;;;;;;;13.08;100.00;98908.47;5095819;28;20526;-84
2022/10/29 06:08:14;;;;;;;103.00;20.98;;;;;;;12.91;100.00;98931.88;5075227;28;20035;-84
2022/10/29 06:10:40;;;;;;;56.90;18.40;;;;;;;12.95;100.00;98933.03;5092069;28;20470;-84
2022/10/29 06:13:13;;;;;;;51.63;18.20;;;;;;;13.07;100.00;98933.19;5093565;28;20032;-83
2022/10/29 06:15:39;;;;;;;41.08;16.63;;;;;;;13.12;100.00;98922.00;5091589;28;20028;-83
2022/10/29 06:18:05;;;;;;;45.97;16.38;;;;;;;13.10;100.00;98908.22;5092398;28;20074;-84
2022/10/29 06:20:31;;;;;;;35.03;15.38;;;;;;;13.13;100.00;98907.78;5092780;28;20044;-84
2022/10/29 06:22:57;;;;;;;33.90;15.43;;;;;;;13.15;100.00;98908.38;5091461;28;20024;-83
2022/10/29 06:25:25;;;;;;;38.53;16.48;;;;;;;13.14;100.00;98893.59;5091636;28;20159;-84
2022/10/29 06:28:02;;;;;;;32.75;15.13;;;;;;;13.12;100.00;98890.38;5090916;28;20058;-83
2022/10/29 06:30:32;;;;;;;34.78;13.73;;;;;;;12.90;100.00;98860.97;5090678;28;20028;-83
2022/10/29 06:32:58;;;;;;;30.70;13.13;;;;;;;12.88;100.00;98855.91;5091837;28;20028;-83
2022/10/29 06:35:27;;;;;;;36.03;14.60;;;;;;;12.91;100.00;98858.09;5093001;28;20040;-83
2022/10/29 06:37:53;;;;;;;34.53;13.15;;;;;;;12.92;100.00;98848.38;5090891;28;20056;-83
2022/10/29 06:40:18;;;;;;;34.70;13.93;;;;;;;12.98;100.00;98843.06;5091138;28;20067;-84
2022/10/29 06:42:44;;;;;;;29.92;12.68;;;;;;;12.96;100.00;98850.34;5090624;28;21151;-83
2022/10/29 06:45:10;;;;;;;34.47;13.63;;;;;;;12.88;100.00;98848.00;5075120;28;20412;-83
2022/10/29 06:47:41;;;;;;;30.98;12.65;;;;;;;12.94;100.00;98841.88;5090859;28;20042;-83
2022/10/29 06:50:08;;;;;;;33.10;12.45;;;;;;;12.91;100.00;98833.59;5091167;28;20034;-82
2022/10/29 06:52:33;;;;;;;30.58;13.43;;;;;;;12.86;100.00;98834.25;5091674;28;20044;-81
2022/10/29 06:55:01;;;;;;;28.45;11.57;;;;;;;12.86;100.00;98826.34;5090390;28;20119;-82
2022/10/29 06:57:27;;;;;;;25.73;10.98;;;;;;;12.90;100.00;98835.41;5091518;28;20085;-82
2022/10/29 06:59:54;;;;;;;24.20;10.93;;;;;;;12.85;100.00;98843.16;5088149;28;20039;-82
2022/10/29 07:02:20;;;;;;;28.90;12.35;;;;;;;12.84;100.00;98838.91;5084556;28;20047;-83
2022/10/29 07:04:46;;;;;;;27.95;12.45;;;;;;;12.82;100.00;98838.31;5089198;28;20039;-82
2022/10/29 07:07:11;;;;;;;32.78;13.82;;;;;;;12.72;100.00;98823.00;5072676;28;20020;-81
2022/10/29 07:09:37;;;;;;;29.33;13.88;;;;;;;12.82;100.00;98818.03;5090236;28;20047;-81
2022/10/29 07:12:03;;;;;;;27.75;13.82;;;;;;;12.84;100.00;98815.22;5087773;28;20542;-81
2022/10/29 07:14:28;;;;;;;35.25;15.45;;;;;;;12.82;100.00;98799.59;5090261;28;20028;-81
2022/10/29 07:16:54;;;;;;;33.83;15.60;;;;;;;12.84;100.00;98784.38;5089763;28;20362;-81
2022/10/29 07:19:20;;;;;;;30.83;15.55;;;;;;;12.82;100.00;98793.56;5090583;28;20031;-81
2022/10/29 07:21:45;;;;;;;28.27;14.05;;;;;;;12.88;100.00;98791.88;5090546;28;20024;-82
2022/10/29 07:24:11;;;;;;;30.85;15.45;;;;;;;12.77;100.00;98799.44;5090309;28;20094;-83
2022/10/29 07:26:37;;;;;;;27.70;15.07;;;;;;;12.86;100.00;98800.00;5089108;28;20024;-82
2022/10/29 07:29:04;;;;;;;26.00;15.38;;;;;;;12.79;100.00;98807.94;5088156;28;20074;-82
2022/10/29 07:31:30;;;;;;;30.10;15.77;;;;;;;12.88;100.00;98795.31;5089986;28;20469;-82
2022/10/29 07:33:56;;;;;;;25.65;14.98;;;;;;;12.85;100.00;98799.16;5089901;28;20040;-82
2022/10/29 07:36:22;;;;;;;20.02;12.88;;;;;;;12.89;100.00;98807.47;5088967;28;20512;-83
2022/10/29 07:38:47;;;;;;;25.88;13.45;;;;;;;12.94;100.00;98807.63;5089321;28;20120;-82
2022/10/29 07:41:13;;;;;;;22.83;12.90;;;;;;;12.98;100.00;98803.56;5089080;28;20127;-82
2022/10/29 07:43:39;;;;;;;23.77;14.57;;;;;;;12.98;100.00;98805.38;5086750;28;20036;-83
2022/10/29 07:46:05;;;;;;;23.83;13.30;;;;;;;12.95;100.00;98801.31;5089289;28;20082;-84
2022/10/29 07:48:31;;;;;;;27.88;13.57;;;;;;;12.93;100.00;98800.72;5089335;28;20036;-83
2022/10/29 07:50:58;;;;;;;21.73;13.35;;;;;;;12.99;100.00;98791.16;5086718;28;20056;-81
2022/10/29 07:53:23;;;;;;;21.90;13.65;;;;;;;13.00;100.00;98798.88;5089213;28;20035;-80
2022/10/29 07:55:56;;;;;;;20.02;13.25;;;;;;;13.00;100.00;98803.31;5088563;28;20437;-80
2022/10/29 07:58:25;;;;;;;23.42;13.27;;;;;;;12.97;100.00;98801.94;5090232;28;20108;-85
2022/10/29 08:00:51;;;;;;;22.20;13.95;;;;;;;12.96;100.00;98802.94;5090414;28;20024;-80
2022/10/29 08:03:17;;;;;;;19.45;12.80;;;;;;;12.99;100.00;98802.53;5088414;28;20020;-81
2022/10/29 08:05:43;;;;;;;23.23;14.25;;;;;;;13.05;100.00;98802.69;5090512;28;20484;-80
2022/10/29 08:08:09;;;;;;;20.58;13.23;;;;;;;13.07;100.00;98803.25;5090455;28;20020;-80
2022/10/29 08:10:35;;;;;;;23.00;13.55;;;;;;;13.13;100.00;98805.03;5086901;28;20034;-80
2022/10/29 08:13:03;;;;;;;18.17;12.77;;;;;;;13.15;100.00;98802.97;5090169;28;20512;-81
2022/10/29 08:15:31;;;;;;;21.02;11.55;;;;;;;13.11;100.00;98802.63;5088280;28;20039;-81
2022/10/29 08:17:56;;;;;;;22.15;12.35;;;;;;;13.16;100.00;98796.69;5089761;28;20064;-81
2022/10/29 08:20:24;;;;;;;17.80;11.45;;;;;;;13.10;100.00;98802.81;5090595;28;20044;-81
2022/10/29 08:22:50;;;;;;;17.65;12.07;;;;;;;13.10;100.00;98800.19;5088287;28;20035;-81
2022/10/29 08:25:16;;;;;;;17.23;11.30;;;;;;;13.19;100.00;98801.53;5090020;28;20020;-81
2022/10/29 08:27:42;;;;;;;15.85;12.02;;;;;;;13.18;100.00;98799.94;5088800;28;20028;-83
2022/10/29 08:30:10;;;;;;;18.20;10.45;;;;;;;13.10;100.00;98808.09;5089176;28;20032;-82
2022/10/29 08:32:36;;;;;;;17.45;12.13;;;;;;;13.06;100.00;98796.38;5106003;28;20032;-82
2022/10/29 08:35:02;;;;;;;14.50;10.55;;;;;;;13.10;100.00;98794.91;5088658;28;20081;-83
2022/10/29 08:37:28;;;;;;;13.35;10.23;;;;;;;13.11;100.00;98801.81;5089396;28;20028;-82
2022/10/29 08:39:54;;;;;;;13.68;10.95;;;;;;;13.14;100.00;98802.19;5091093;28;20032;-84
2022/10/29 08:42:45;;;;;;;13.50;10.68;;;;;;;13.23;100.00;98797.44;5074423;28;20119;-81
2022/10/29 08:45:28;;;;;;;14.95;10.27;;;;;;;13.26;100.00;98797.00;5095279;28;20115;-82
2022/10/29 08:48:24;;;;;;;15.93;11.55;;;;;;;13.30;100.00;98786.84;5092773;28;20085;-82
2022/10/29 08:50:55;;;;;;;15.70;10.50;;;;;;;13.26;100.00;98778.56;5091725;28;20048;-81
2022/10/29 08:53:26;;;;;;;12.35;11.00;;;;;;;13.34;100.00;98768.72;5092355;28;20035;-81
2022/10/29 08:55:52;;;;;;;13.93;10.50;;;;;;;13.36;100.00;98766.69;5091201;28;20040;-83
2022/10/29 08:58:22;;;;;;;18.85;12.30;;;;;;;13.38;100.00;98772.56;5093356;28;20055;-81
2022/10/29 09:00:54;;;;;;;14.65;11.23;;;;;;;13.38;100.00;98772.56;5092282;28;20493;-82
2022/10/29 09:03:20;;;;;;;15.48;11.55;;;;;;;13.43;100.00;98776.16;5091687;28;20028;-82
2022/10/29 09:06:14;;;;;;;13.90;11.00;;;;;;;13.44;100.00;98779.63;5092817;28;20397;-82
2022/10/29 09:08:58;;;;;;;16.20;12.68;;;;;;;13.39;100.00;98772.31;5070055;28;20401;-82
2022/10/29 09:11:27;;;;;;;17.77;12.65;;;;;;;13.39;100.00;98774.19;5093630;28;20099;-82
2022/10/29 09:14:24;;;;;;;19.08;13.48;;;;;;;13.35;100.00;98765.88;5092430;28;20092;-81
2022/10/29 09:17:04;;;;;;;17.52;12.70;;;;;;;13.35;100.00;98767.69;5092740;28;20032;-82
2022/10/29 09:20:02;;;;;;;18.70;13.85;;;;;;;13.36;100.00;98764.03;5091711;28;20031;-82
2022/10/29 09:23:05;;;;;;;20.05;13.93;;;;;;;13.42;100.00;98774.53;5091772;28;20028;-82
2022/10/29 09:25:55;;;;;;;18.52;13.43;;;;;;;13.44;100.00;98761.16;5108804;28;20058;-84
2022/10/29 09:28:53;;;;;;;19.65;14.60;;;;;;;13.47;100.00;98771.25;5091317;28;20427;-84
2022/10/29 09:31:43;;;;;;;20.23;14.98;;;;;;;13.48;100.00;98749.16;5091376;28;20035;-83
2022/10/29 09:34:16;;;;;;;22.40;15.65;;;;;;;13.51;100.00;98737.34;5092091;28;20124;-82
2022/10/29 09:36:45;;;;;;;21.60;16.25;;;;;;;13.52;100.00;98747.66;5090349;28;20039;-82
2022/10/29 09:39:34;;;;;;;24.58;16.05;;;;;;;13.52;100.00;98752.94;5070758;28;20059;-83
2022/10/29 09:44:52;;;;;;;25.65;17.98;;;;;;;13.69;100.00;98760.25;5643330;22;22710;-83
2022/10/29 09:47:58;;;;;;;26.38;18.40;;;;;;;13.71;100.00;98755.56;5056375;28;20311;-84
2022/10/29 09:50:32;;;;;;;28.27;19.27;;;;;;;13.74;100.00;98751.69;5053334;28;20028;-85
2022/10/29 09:52:58;;;;;;;29.40;21.23;;;;;;;13.72;100.00;98749.25;5020730;28;20033;-84
2022/10/29 09:55:27;;;;;;;38.13;23.67;;;;;;;13.78;100.00;98756.31;5047818;28;20491;-84
2022/10/29 09:57:56;;;;;;;31.88;21.05;;;;;;;13.79;100.00;98749.19;5041454;28;20448;-84
2022/10/29 10:00:27;;;;;;;33.97;23.30;;;;;;;13.85;100.00;98753.56;5058362;28;20057;-84
2022/10/29 10:03:00;;;;;;;37.92;23.48;;;;;;;13.79;100.00;98746.53;5052410;28;20115;-85
2022/10/29 10:05:28;;;;;;;38.28;23.52;;;;;;;13.76;100.00;98734.63;5016423;28;20025;-86
2022/10/29 10:08:12;;;;;;;32.75;22.38;;;;;;;13.82;100.00;98739.00;5043029;28;20090;-84
2022/10/29 10:11:03;;;;;;;32.72;22.92;;;;;;;13.88;100.00;98733.84;5024926;28;20041;-84
2022/10/29 10:13:50;;;;;;;33.88;23.30;;;;;;;13.84;100.00;98739.56;5021441;28;20187;-85
2022/10/29 10:16:23;;;;;;;45.53;26.52;;;;;;;13.76;100.00;98739.09;5058119;28;20039;-85
2022/10/29 10:18:48;;;;;;;37.67;24.77;;;;;;;13.87;100.00;98726.97;5045170;28;20434;-86
2022/10/29 10:21:31;;;;;;;38.47;24.38;;;;;;;13.94;100.00;98732.94;5042848;28;20024;-84
2022/10/29 10:23:58;;;;;;;37.13;26.17;;;;;;;13.87;100.00;98740.16;5042981;28;20036;-86
2022/10/29 10:26:41;;;;;;;44.72;30.33;;;;;;;13.84;100.00;98715.84;5024174;28;20029;-84
2022/10/29 10:29:14;;;;;;;;;;;;;;;14.03;100.00;98721.06;5025247;28;20033;-85
2022/10/29 10:32:01;;;;;;;42.97;29.65;;;;;;;14.04;100.00;98721.84;5042249;28;20324;-85
2022/10/29 10:34:33;;;;;;;51.47;35.28;;;;;;;14.10;100.00;98721.75;5031334;28;20048;-86
2022/10/29 10:37:06;;;;;;;52.35;32.92;;;;;;;14.14;100.00;98712.34;5052860;28;20538;-86
2022/10/29 10:39:37;;;;;;;55.70;35.22;;;;;;;14.13;100.00;98710.75;5039768;28;20067;-86
2022/10/29 10:42:13;;;;;;;61.97;47.22;;;;;;;14.25;100.00;98723.19;5041471;28;20993;-85
2022/10/29 10:44:47;;;;;;;54.90;38.70;;;;;;;14.25;100.00;98712.63;5043272;28;20040;-85
2022/10/29 10:47:17;;;;;;;40.17;28.85;;;;;;;14.34;100.00;98703.31;5056263;28;20032;-86
2022/10/29 10:49:44;;;;;;;41.20;27.55;;;;;;;14.36;100.00;98696.00;5054276;28;20488;-86
2022/10/29 10:52:25;;;;;;;36.55;26.33;;;;;;;14.39;100.00;98698.19;5057338;28;20032;-86
2022/10/29 10:55:06;;;;;;;38.97;26.75;;;;;;;14.42;100.00;98691.63;5060340;28;20378;-86
2022/10/29 10:57:38;;;;;;;37.50;25.88;;;;;;;14.46;100.00;98686.72;5054620;28;20040;-85
2022/10/29 11:00:18;;;;;;;34.42;25.52;;;;;;;14.54;100.00;98686.34;5057944;28;20053;-85
2022/10/29 11:03:23;;;;;;;31.45;23.98;;;;;;;14.59;100.00;98680.41;5054717;28;20524;-84
2022/10/29 11:06:03;;;;;;;37.20;25.77;;;;;;;14.62;100.00;98672.81;4986586;28;20041;-85
2022/10/29 11:08:39;;;;;;;31.20;24.42;;;;;;;14.63;100.00;98668.31;5034947;28;20128;-86
2022/10/29 11:11:14;;;;;;;38.15;23.23;;;;;;;14.66;100.00;98673.97;5034609;28;20032;-86
2022/10/29 11:13:41;;;;;;;33.33;24.50;;;;;;;14.67;100.00;98667.66;5029058;28;20025;-85
2022/10/29 11:16:17;;;;;;;41.13;27.27;;;;;;;14.68;100.00;98661.31;5044573;28;20045;-85
2022/10/29 11:19:23;;;;;;;38.40;26.05;;;;;;;14.73;100.00;98667.78;5038209;28;20031;-85
2022/10/29 11:21:55;;;;;;;37.22;24.85;;;;;;;14.68;100.00;98657.91;5036594;28;20056;-84
2022/10/29 11:24:46;;;;;;;32.13;23.10;;;;;;;14.71;100.00;98652.97;5039063;28;20040;-85
2022/10/29 11:27:26;;;;;;;37.72;24.45;;;;;;;14.69;100.00;98654.22;5042246;28;20043;-86